< Typhoon 195608 1956 Season Typhoon 195610 >
Typhoon 195609 (BABS)
General InformationTrack Information on Google Maps || Disaster Info.ResourceGoogle EarthGE AnimationAtom FeedGeoJSON
Detalied Best Track (Time Zone = UTC)
Year Month Day Hour Lat. Long. Pressure (hPa) Wind (kt) Class Image Chart
1956 8 10 06 16.0 126.0 1002 0 2 -- Chart
1956 8 10 12 17.3 126.5 1004 0 2 -- Chart
1956 8 10 18 18.4 127.0 1004 0 2 -- Chart
1956 8 11 00 19.2 127.5 1002 0 2 -- Chart
1956 8 11 06 20.0 128.0 1000 0 2 -- Chart
1956 8 11 12 20.4 128.0 1000 0 2 -- Chart
1956 8 11 18 20.9 128.0 1000 0 2 -- Chart
1956 8 12 00 21.0 127.5 1000 0 2 -- Chart
1956 8 12 06 21.0 127.0 996 0 9 -- Chart
1956 8 12 12 21.0 127.0 994 0 9 -- Chart
1956 8 12 18 21.1 126.9 994 0 9 -- Chart
1956 8 13 00 21.2 126.7 992 0 9 -- Chart
1956 8 13 06 21.2 126.6 990 0 9 -- Chart
1956 8 13 12 21.3 126.5 988 0 9 -- Chart
1956 8 13 18 21.3 126.3 984 0 9 -- Chart
1956 8 14 00 21.4 126.0 980 0 9 -- Chart
1956 8 14 06 22.2 126.1 980 0 9 -- Chart
1956 8 14 12 23.2 126.6 980 0 9 -- Chart
1956 8 14 18 24.0 126.3 980 0 9 -- Chart
1956 8 15 00 24.7 126.0 970 0 9 -- Chart
1956 8 15 06 25.3 126.0 960 0 9 -- Chart
1956 8 15 12 26.4 126.0 960 0 9 -- Chart
1956 8 15 18 27.6 126.2 965 0 9 -- Chart
1956 8 16 00 29.0 127.2 965 0 9 -- Chart
1956 8 16 06 30.6 127.7 965 0 9 -- Chart
1956 8 16 12 32.0 128.0 965 0 9 -- Chart
1956 8 16 18 33.2 129.0 965 0 9 -- Chart
1956 8 17 00 34.8 131.1 965 0 9 -- Chart
1956 8 17 06 36.4 132.8 965 0 9 -- Chart
1956 8 17 12 37.7 134.8 970 0 9 -- Chart
1956 8 17 18 38.4 136.9 975 0 9 -- Chart
1956 8 18 00 39.6 138.6 975 0 9 -- Chart
1956 8 18 06 40.8 139.8 985 0 9 -- Chart
1956 8 18 12 42.0 140.0 994 0 9 -- Chart
1956 8 18 18 43.0 140.0 998 0 2 -- Chart
1956 8 19 00 43.0 140.0 999 0 2 -- Chart
1956 8 19 06 43.0 140.0 1002 0 2 -- Chart
1956 8 19 12 43.0 140.0 1004 0 2 -- Chart
1956 8 19 18 43.0 140.0 1002 0 2 -- Chart
Japan Meteorological Agency Best Track Data | Correction Date : 1989-06-01
< Typhoon 195608 1956 Season Typhoon 195610 >

Help